Great Lakes, Illinois
Current Conditions -  °F | °C
As of 9:12 PM on Saturday 24 Jan 2015 (Local Time) from KUGN Reporting Station
Overcast Overcast  
Wind Chill: 32°   Ceiling: 800
Heat Index: 32°   Visibility: 7mi
Dew Point: 29°   Wind: 0mph
Humidity: 88%   Direction: NA
Pressure: 29.68"   Gusts: NA
Location:  42.31°N, 87.85°W
Report Text: KUGN 250312Z AUTO 00000KT 7SM BKN008 OVC110 00/M02 A2968 RMK AO2 T00001017
Loading
Personal Weather Stations






























Interactive Weather Map New forecast layout! Learn more

10-Day Weather Forecast

Advertisements
Track Severe Weather on mobile